createdAt,value
2019-06-15T00:01:25.260Z,16.2
2019-06-15T00:11:25.026Z,15.7
2019-06-15T00:21:25.857Z,16.6
2019-06-15T00:31:26.368Z,20.3
2019-06-15T00:41:26.331Z,18.9
2019-06-15T00:51:25.061Z,18.9
2019-06-15T01:01:26.295Z,16.9
2019-06-15T01:11:25.273Z,18.0
2019-06-15T01:21:25.749Z,17.4
2019-06-15T01:31:26.850Z,19.8
2019-06-15T01:41:25.581Z,19.9
2019-06-15T01:51:25.886Z,16.8
2019-06-15T02:01:26.182Z,17.4
2019-06-15T02:11:30.635Z,20.2
2019-06-15T02:21:25.945Z,20.9
2019-06-15T02:31:26.050Z,20.9
2019-06-15T02:41:25.498Z,18.5
2019-06-15T02:51:25.590Z,17.6
2019-06-15T03:01:26.759Z,17.4
2019-06-15T03:11:25.675Z,18.4
2019-06-15T03:21:31.998Z,17.6
2019-06-15T03:31:24.764Z,16.1
2019-06-15T03:41:25.411Z,17.5
2019-06-15T03:51:27.057Z,17.3
2019-06-15T04:01:25.951Z,16.9
2019-06-15T04:11:24.925Z,19.2
2019-06-15T04:21:24.800Z,21.3
2019-06-15T04:31:26.096Z,36.3
2019-06-15T04:41:25.078Z,37.0
2019-06-15T04:51:24.859Z,29.8
2019-06-15T05:01:30.188Z,31.8
2019-06-15T05:11:27.028Z,29.4
2019-06-15T05:21:25.058Z,24.8
2019-06-15T05:31:31.471Z,28.0
2019-06-15T05:41:25.745Z,24.8
2019-06-15T05:51:25.537Z,21.1
2019-06-15T06:01:26.075Z,17.8
2019-06-15T06:11:25.953Z,15.3
2019-06-15T06:21:25.258Z,15.2
2019-06-15T06:31:24.997Z,16.8
2019-06-15T06:41:26.661Z,19.7
2019-06-15T06:51:26.261Z,22.6
2019-06-15T07:01:25.292Z,20.9
2019-06-15T07:11:26.380Z,21.6
2019-06-15T07:21:25.238Z,19.8
2019-06-15T07:31:25.361Z,19.3
2019-06-15T07:41:25.126Z,18.8
2019-06-15T07:51:26.102Z,20.4
2019-06-15T08:01:24.911Z,21.2
2019-06-15T08:11:26.391Z,17.5
2019-06-15T08:21:25.543Z,14.2
2019-06-15T08:31:26.270Z,12.8
2019-06-15T08:41:25.421Z,13.3
2019-06-15T08:51:25.178Z,14.1
2019-06-15T09:01:25.340Z,13.6
2019-06-15T09:11:25.187Z,11.8
2019-06-15T09:21:25.052Z,16.0
2019-06-15T09:31:27.461Z,13.7
2019-06-15T09:41:25.812Z,14.9
2019-06-15T09:51:25.731Z,13.8
2019-06-15T10:01:25.553Z,11.8
2019-06-15T10:11:26.021Z,11.0
2019-06-15T10:21:25.280Z,10.4
2019-06-15T10:31:25.571Z,10.3
2019-06-15T10:41:26.079Z,9.0
2019-06-15T10:51:25.196Z,8.8
2019-06-15T11:01:25.103Z,8.9
2019-06-15T11:11:25.659Z,9.5
2019-06-15T11:21:28.045Z,8.0
2019-06-15T11:31:26.167Z,7.9
2019-06-15T11:41:24.861Z,7.1
2019-06-15T11:51:26.606Z,7.2
2019-06-15T12:01:26.237Z,6.8
2019-06-15T12:11:25.132Z,7.3
2019-06-15T12:21:25.678Z,7.3
2019-06-15T12:31:25.775Z,6.9
2019-06-15T12:41:25.575Z,7.0
2019-06-15T12:51:25.664Z,8.1
2019-06-15T13:01:25.418Z,6.8
2019-06-15T13:11:25.506Z,7.0
2019-06-15T13:21:26.048Z,7.4
2019-06-15T13:31:26.098Z,7.6
2019-06-15T13:41:25.930Z,6.9
2019-06-15T13:51:25.736Z,8.4
2019-06-15T14:01:33.943Z,8.4
2019-06-15T14:11:25.820Z,7.4
2019-06-15T14:21:26.194Z,7.1
2019-06-15T14:31:25.766Z,6.5
2019-06-15T14:41:25.547Z,6.7
2019-06-15T14:51:25.801Z,6.6
2019-06-15T15:01:27.274Z,6.4
2019-06-15T15:11:26.397Z,7.7
2019-06-15T15:21:26.661Z,7.9
2019-06-15T15:31:27.213Z,7.4
2019-06-15T15:41:26.554Z,8.6
2019-06-15T15:51:26.741Z,9.1
2019-06-15T16:01:27.554Z,9.6
2019-06-15T16:11:26.719Z,8.3
2019-06-15T16:21:26.529Z,7.9
2019-06-15T16:31:29.186Z,9.1
2019-06-15T16:41:25.894Z,7.8
2019-06-15T16:51:26.949Z,7.1
2019-06-15T17:01:28.958Z,7.0
2019-06-15T17:11:27.372Z,6.8
2019-06-15T17:21:26.105Z,7.4
2019-06-15T17:31:27.114Z,8.0
2019-06-15T17:41:27.574Z,8.0
2019-06-15T17:51:26.896Z,8.1
2019-06-15T18:01:26.615Z,9.1
2019-06-15T18:11:26.839Z,8.9
2019-06-15T18:21:26.831Z,9.2
2019-06-15T18:31:26.919Z,9.5
2019-06-15T18:41:26.551Z,9.2
2019-06-15T18:51:27.005Z,10.4
2019-06-15T19:01:27.135Z,10.1
2019-06-15T19:11:27.312Z,10.4
2019-06-15T19:21:26.167Z,10.4
2019-06-15T19:31:27.746Z,10.3
2019-06-15T19:41:26.670Z,10.2
2019-06-15T19:51:26.341Z,10.8
2019-06-15T20:01:27.426Z,10.8
2019-06-15T20:11:27.239Z,11.1
2019-06-15T20:21:30.608Z,11.7
2019-06-15T20:31:26.864Z,11.3
2019-06-15T20:41:26.928Z,11.1
2019-06-15T20:51:26.246Z,11.2
2019-06-15T21:01:25.987Z,11.2
2019-06-15T21:11:26.496Z,11.7
2019-06-15T21:21:27.616Z,12.1
2019-06-15T21:31:27.802Z,12.6
2019-06-15T21:41:26.719Z,11.9
2019-06-15T21:51:26.959Z,12.5
2019-06-15T22:01:26.170Z,12.7
2019-06-15T22:11:26.580Z,12.4
2019-06-15T22:21:28.037Z,12.7
2019-06-15T22:31:25.362Z,13.6
2019-06-15T22:41:25.686Z,13.1
2019-06-15T22:51:27.483Z,13.1
2019-06-15T23:01:26.982Z,11.6
2019-06-15T23:11:26.853Z,10.6
2019-06-15T23:21:26.745Z,13.3
2019-06-15T23:31:24.895Z,8.7
2019-06-15T23:41:27.238Z,7.9
2019-06-15T23:51:26.418Z,7.8
